Tim S. Dool — VGPY — position and weather

sailwx.info

Track history (hours):
 
Tides and Currents Weather Stations Pressure Air Temp Water Temp Dewpoint Dewpoint Depression Visibility Wind Speed Wind Dir Waves Ship Positions

Tim S. Dool

Last reported at 2016-Aug-31 17:00 UTC. Time now 2016-Sep-01 01:56 UTC.
Position N 47°18' W 090°24'.

Length 223 m; draft 8.1 m.

Type: Ship. MMSI: 316001696.

Wind from 320 at 4 knots

Waves 0.5 meters (2 feet), 3 second period

Barometer 1017.0 mb
Air temperature 21.0 ° C
Visibility: greater than 10.8 NM

Date/timePositionNaut miles runAvg speedWind from/ knotsBaromVisibWave heightAir tempDewpointWater temp
2016-Aug-31 17:00N 47°18' W 090°24'5215.2 320 / 41017.010.8 0.521.0
2016-Aug-31 13:33N 46°54' W 091°32'1313.2
2016-Aug-31 12:33N 46°48' W 091°49'1010.1
2016-Aug-31 11:34N 46°42' W 092°01'0 0.3
2016-Aug-31 10:33N 46°42' W 092°01'0 0.0
2016-Aug-31 09:33N 46°42' W 092°01'0 0.0
2016-Aug-31 08:33N 46°42' W 092°01'0 0.0
2016-Aug-31 07:33N 46°42' W 092°01'0 0.0
2016-Aug-31 06:33N 46°42' W 092°01'0 0.0
2016-Aug-31 05:33N 46°42' W 092°01'0 0.0
2016-Aug-31 04:33N 46°42' W 092°01'0 0.0
2016-Aug-31 03:33N 46°42' W 092°01'0 0.0
2016-Aug-31 02:33N 46°42' W 092°01'0 0.0
2016-Aug-31 01:33N 46°42' W 092°01'0 0.0
2016-Aug-31 00:33N 46°42' W 092°01'0 0.0
2016-Aug-30 23:33N 46°42' W 092°01'0 0.0
2016-Aug-30 22:33N 46°42' W 092°01'3 2.9
2016-Aug-30 21:33N 46°44' W 091°58'1212.5
2016-Aug-30 20:33N 46°50' W 091°42'3610.2
2016-Aug-30 17:00N 47°06' W 090°54'17113.2 999 1016.010.8 0.522.0
2016-Aug-30 04:00N 47°12' W 086°42'140 9.0 060 / 41014.010.8 0.522.0
2016-Aug-29 12:22N 45°55' W 083°52'1213.3
2016-Aug-29 11:28N 45°45' W 083°42'1413.5
2016-Aug-29 10:27N 45°34' W 083°31'1213.4
2016-Aug-29 09:33N 45°24' W 083°21'1413.4
2016-Aug-29 08:31N 45°12' W 083°10'1212.9
2016-Aug-29 07:33N 45°00' W 083°04'4512.7
2016-Aug-29 04:00N 44°18' W 082°42'149 6.8 010 / 61019.010.8 1.023.0
2016-Aug-28 06:00N 42°12' W 080°54'5712.7 130 / 31015.010.8 0.526.0
2016-Aug-28 01:29N 42°38' W 079°45'42 3.4
2016-Aug-27 13:05N 43°12' W 079°12'1 1.9
2016-Aug-27 12:33N 43°13' W 079°13'1 1.0
2016-Aug-27 11:33N 43°14' W 079°13'3 0.1
2016-Aug-26 08:03N 43°16' W 079°15'3 6.8
2016-Aug-26 07:33N 43°13' W 079°13'43 2.9
2016-Aug-25 17:00N 42°36' W 079°42'14812.3 330 / 141012.0 5.4 1.026.0
2016-Aug-25 05:00N 41°54' W 082°54'116 8.9 250 / 151011.010.8 1.025.0
2016-Aug-24 16:00N 43°48' W 082°24'11912.4 160 / 181014.010.8 2.025.0
2016-Aug-24 06:21N 45°37' W 083°31'2612.7
2016-Aug-24 04:20N 45°57' W 083°54'20 9.7
2016-Aug-24 02:16N 46°14' W 084°10'22610.1
2016-Aug-23 04:00N 47°24' W 089°24'1711.6 180 / 221009.010.8 2.021.0
2016-Aug-23 02:31N 47°21' W 089°49'1212.6
2016-Aug-23 01:33N 47°18' W 090°06'6312.6
2016-Aug-22 20:33N 46°55' W 091°32'1312.7
2016-Aug-22 19:34N 46°49' W 091°48'1110.8
2016-Aug-22 18:32N 46°42' W 092°01'0 0.4
2016-Aug-22 17:32N 46°42' W 092°01'0 0.0
2016-Aug-22 16:32N 46°42' W 092°01'0 0.0
2016-Aug-22 15:32N 46°42' W 092°01'0 0.0
2016-Aug-22 14:23N 46°42' W 092°01'0 0.0
2016-Aug-22 13:23N 46°42' W 092°01'0 0.0
2016-Aug-22 12:20N 46°42' W 092°01'0 0.0
2016-Aug-22 11:26N 46°42' W 092°01'0 0.0
2016-Aug-22 10:26N 46°42' W 092°01'0 0.0
2016-Aug-22 09:29N 46°42' W 092°01'0 0.0
2016-Aug-22 08:29N 46°42' W 092°01'1 0.6
2016-Aug-22 07:29N 46°43' W 092°01'2 1.1
2016-Aug-22 05:34N 46°44' W 091°59'0 0.0
2016-Aug-22 04:25N 46°44' W 091°59'0 0.0
2016-Aug-22 03:28N 46°44' W 091°59'0 0.0
2016-Aug-22 02:28N 46°44' W 091°59'0 0.0
2016-Aug-22 01:28N 46°44' W 091°59'0 0.1
2016-Aug-22 00:28N 46°44' W 091°59'0 0.1
2016-Aug-21 23:31N 46°44' W 091°59'0 0.0
2016-Aug-21 22:31N 46°44' W 091°59'0 0.1
2016-Aug-21 21:31N 46°44' W 091°60'0 0.0
2016-Aug-21 20:31N 46°44' W 091°60'0 0.0
2016-Aug-21 19:31N 46°44' W 091°60'0 0.1
2016-Aug-21 18:31N 46°44' W 091°59'0 0.0
2016-Aug-21 17:22N 46°44' W 091°59'  
Track history (hours):
 
Tides and Currents Weather Stations Pressure Air Temp Water Temp Dewpoint Dewpoint Depression Visibility Wind Speed Wind Dir Waves Ship Positions

Tim S. Dool

Last reported at 2016-Aug-31 17:00 UTC. Time now 2016-Sep-01 01:56 UTC.
Position N 47°18' W 090°24'.

Length 223 m; draft 8.1 m.

Type: Ship. MMSI: 316001696.

Wind from 320 at 4 knots

Waves 0.5 meters (2 feet), 3 second period

Barometer 1017.0 mb
Air temperature 21.0 ° C
Visibility: greater than 10.8 NM

Date/timePositionNaut miles runAvg speedWind from/ knotsBaromVisibWave heightAir tempDewpointWater temp
2016-Aug-31 17:00N 47°18' W 090°24'5215.2 320 / 41017.010.8 0.521.0
2016-Aug-31 13:33N 46°54' W 091°32'1313.2
2016-Aug-31 12:33N 46°48' W 091°49'1010.1
2016-Aug-31 11:34N 46°42' W 092°01'0 0.3
2016-Aug-31 10:33N 46°42' W 092°01'0 0.0
2016-Aug-31 09:33N 46°42' W 092°01'0 0.0
2016-Aug-31 08:33N 46°42' W 092°01'0 0.0
2016-Aug-31 07:33N 46°42' W 092°01'0 0.0
2016-Aug-31 06:33N 46°42' W 092°01'0 0.0
2016-Aug-31 05:33N 46°42' W 092°01'0 0.0
2016-Aug-31 04:33N 46°42' W 092°01'0 0.0
2016-Aug-31 03:33N 46°42' W 092°01'0 0.0
2016-Aug-31 02:33N 46°42' W 092°01'0 0.0
2016-Aug-31 01:33N 46°42' W 092°01'0 0.0
2016-Aug-31 00:33N 46°42' W 092°01'0 0.0
2016-Aug-30 23:33N 46°42' W 092°01'0 0.0
2016-Aug-30 22:33N 46°42' W 092°01'3 2.9
2016-Aug-30 21:33N 46°44' W 091°58'1212.5
2016-Aug-30 20:33N 46°50' W 091°42'3610.2
2016-Aug-30 17:00N 47°06' W 090°54'17113.2 999 1016.010.8 0.522.0
2016-Aug-30 04:00N 47°12' W 086°42'140 9.0 060 / 41014.010.8 0.522.0
2016-Aug-29 12:22N 45°55' W 083°52'1213.3
2016-Aug-29 11:28N 45°45' W 083°42'1413.5
2016-Aug-29 10:27N 45°34' W 083°31'1213.4
2016-Aug-29 09:33N 45°24' W 083°21'1413.4
2016-Aug-29 08:31N 45°12' W 083°10'1212.9
2016-Aug-29 07:33N 45°00' W 083°04'4512.7
2016-Aug-29 04:00N 44°18' W 082°42'149 6.8 010 / 61019.010.8 1.023.0
2016-Aug-28 06:00N 42°12' W 080°54'5712.7 130 / 31015.010.8 0.526.0
2016-Aug-28 01:29N 42°38' W 079°45'42 3.4
2016-Aug-27 13:05N 43°12' W 079°12'1 1.9
2016-Aug-27 12:33N 43°13' W 079°13'1 1.0
2016-Aug-27 11:33N 43°14' W 079°13'3 0.1
2016-Aug-26 08:03N 43°16' W 079°15'3 6.8
2016-Aug-26 07:33N 43°13' W 079°13'43 2.9
2016-Aug-25 17:00N 42°36' W 079°42'14812.3 330 / 141012.0 5.4 1.026.0
2016-Aug-25 05:00N 41°54' W 082°54'116 8.9 250 / 151011.010.8 1.025.0
2016-Aug-24 16:00N 43°48' W 082°24'11912.4 160 / 181014.010.8 2.025.0
2016-Aug-24 06:21N 45°37' W 083°31'2612.7
2016-Aug-24 04:20N 45°57' W 083°54'20 9.7
2016-Aug-24 02:16N 46°14' W 084°10'22610.1
2016-Aug-23 04:00N 47°24' W 089°24'1711.6 180 / 221009.010.8 2.021.0
2016-Aug-23 02:31N 47°21' W 089°49'1212.6
2016-Aug-23 01:33N 47°18' W 090°06'6312.6
2016-Aug-22 20:33N 46°55' W 091°32'1312.7
2016-Aug-22 19:34N 46°49' W 091°48'1110.8
2016-Aug-22 18:32N 46°42' W 092°01'0 0.4
2016-Aug-22 17:32N 46°42' W 092°01'0 0.0
2016-Aug-22 16:32N 46°42' W 092°01'0 0.0
2016-Aug-22 15:32N 46°42' W 092°01'0 0.0
2016-Aug-22 14:23N 46°42' W 092°01'0 0.0
2016-Aug-22 13:23N 46°42' W 092°01'0 0.0
2016-Aug-22 12:20N 46°42' W 092°01'0 0.0
2016-Aug-22 11:26N 46°42' W 092°01'0 0.0
2016-Aug-22 10:26N 46°42' W 092°01'0 0.0
2016-Aug-22 09:29N 46°42' W 092°01'0 0.0
2016-Aug-22 08:29N 46°42' W 092°01'1 0.6
2016-Aug-22 07:29N 46°43' W 092°01'2 1.1
2016-Aug-22 05:34N 46°44' W 091°59'0 0.0
2016-Aug-22 04:25N 46°44' W 091°59'0 0.0
2016-Aug-22 03:28N 46°44' W 091°59'0 0.0
2016-Aug-22 02:28N 46°44' W 091°59'0 0.0
2016-Aug-22 01:28N 46°44' W 091°59'0 0.1
2016-Aug-22 00:28N 46°44' W 091°59'0 0.1
2016-Aug-21 23:31N 46°44' W 091°59'0 0.0
2016-Aug-21 22:31N 46°44' W 091°59'0 0.1
2016-Aug-21 21:31N 46°44' W 091°60'0 0.0
2016-Aug-21 20:31N 46°44' W 091°60'0 0.0
2016-Aug-21 19:31N 46°44' W 091°60'0 0.1
2016-Aug-21 18:31N 46°44' W 091°59'0 0.0
2016-Aug-21 17:22N 46°44' W 091°59'  

Dump ship's entire track history